Time;durP1;ratioP1;P1;durP2;ratioP2;P2;SDS_P1;SDS_P2;PMS_P1;PMS_P2;Temp;Humidity;BMP_temperature;BMP_pressure;BME280_temperature;BME280_humidity;BME280_pressure;Samples;Min_cycle;Max_cycle;Signal;HPM_P1;HPM_P2
2021/12/12 00:00:14;;;;;;;;;;;;;;;;;;1015693;29;2355;-70
2021/12/12 00:01:08;;;;;;;;;;;;;;;;;;1019642;29;1686;-68
2021/12/12 00:01:43;;;;;;;;;;;;;;;;;;1019708;29;2013;-67
2021/12/12 00:02:25;;;;;;;;;;;;;;;;;;1021516;29;2662;-67
2021/12/12 00:03:03;;;;;;;;;;;;;;;;;;1022704;28;1935;-70
2021/12/12 00:03:46;;;;;;;;;;;;;;;;;;1022073;28;2689;-70
2021/12/12 00:04:18;;;;;;;;;;;;;;;;;;1018629;29;2071;-69
2021/12/12 00:04:53;;;;;;;;;;;;;;;;;;1014248;29;2012;-69
2021/12/12 00:05:35;;;;;;;;;;;;;;;;;;1020561;29;2796;-69
2021/12/12 00:06:12;;;;;;;;;;;;;;;;;;1015757;29;2278;-67
2021/12/12 00:06:51;;;;;;;;;;;;;;;;;;1025477;28;2378;-66
2021/12/12 00:07:24;;;;;;;;;;;;;;;;;;1023804;28;1849;-67
2021/12/12 00:07:55;;;;;;;;;;;;;;;;;;1023485;28;1552;-66
2021/12/12 00:08:26;;;;;;;;;;;;;;;;;;1017832;29;1620;-67
2021/12/12 00:09:02;;;;;;;;;;;;;;;;;;1015194;29;1936;-66
2021/12/12 00:09:44;;;;;;;;;;;;;;;;;;1009735;29;1661;-67
2021/12/12 00:10:22;;;;;;;;;;;;;;;;;;1009279;29;2048;-67
2021/12/12 00:10:56;;;;;;;;;;;;;;;;;;1015146;29;2738;-66
2021/12/12 00:11:31;;;;;;;;;;;;;;;;;;1020584;29;2547;-66
2021/12/12 00:12:06;;;;;;;;;;;;;;;;;;1023276;28;2498;-68
2021/12/12 00:12:40;;;;;;;;;;;;;;;;;;1013317;29;2520;-65
2021/12/12 00:13:14;;;;;;;;;;;;;;;;;;1012165;29;2650;-66
2021/12/12 00:13:47;;;;;;;;;;;;;;;;;;1011694;29;2729;-66
2021/12/12 00:14:30;;;;;;;;;;;;;;;;;;1012699;29;1360;-66
2021/12/12 00:15:00;;;;;;;;;;;;;;;;;;1010271;29;1325;-69
2021/12/12 00:15:31;;;;;;;;;;;;;;;;;;1013121;29;2354;-70
2021/12/12 00:16:02;;;;;;;;;;;;;;;;;;1021609;28;2727;-69
2021/12/12 00:16:33;;;;;;;;;;;;;;;;;;1020573;28;1551;-70
2021/12/12 00:17:05;;;;;;;;;;;;;;;;;;1018670;29;1724;-68
2021/12/12 00:17:35;;;;;;;;;;;;;;;;;;1020534;29;2601;-69
2021/12/12 00:18:09;;;;;;;;;;;;;;;;;;1014202;29;2052;-69
2021/12/12 00:18:40;;;;;;;;;;;;;;;;;;1015575;29;1290;-69
2021/12/12 00:19:10;;;;;;;;;;;;;;;;;;1017896;29;1652;-70
2021/12/12 00:19:41;;;;;;;;;;;;;;;;;;1020378;29;1337;-70
2021/12/12 00:20:13;;;;;;;;;;;;;;;;;;1019772;29;1482;-69
2021/12/12 00:20:44;;;;;;;;;;;;;;;;;;1023518;28;1880;-69
2021/12/12 00:21:18;;;;;;;;;;;;;;;;;;1022963;28;2030;-69
2021/12/12 00:21:51;;;;;;;;;;;;;;;;;;1019059;29;1386;-70
2021/12/12 00:22:24;;;;;;;;;;;;;;;;;;1021645;28;2393;-69
2021/12/12 00:22:58;;;;;;;;;;;;;;;;;;1024000;28;2174;-70
2021/12/12 00:23:29;;;;;;;;;;;;;;;;;;1021007;28;2354;-69
2021/12/12 00:24:01;;;;;;;;;;;;;;;;;;1018449;29;2388;-69
2021/12/12 00:24:31;;;;;;;;;;;;;;;;;;1011810;29;2544;-66
2021/12/12 00:25:03;;;;;;;;;;;;;;;;;;1012391;29;1795;-67
2021/12/12 00:25:36;;;;;;;;;;;;;;;;;;1016180;29;2516;-67
2021/12/12 00:26:06;;;;;;;;;;;;;;;;;;1015841;29;2423;-67
2021/12/12 00:26:37;;;;;;;;;;;;;;;;;;1012617;29;2471;-67
2021/12/12 00:27:08;;;;;;;;;;;;;;;;;;1013522;29;2432;-67
2021/12/12 00:27:38;;;;;;;;;;;;;;;;;;1013743;29;1987;-67
2021/12/12 00:28:10;;;;;;;;;;;;;;;;;;1018464;29;2147;-67
2021/12/12 00:28:41;;;;;;;;;;;;;;;;;;1019714;29;2608;-66
2021/12/12 00:29:13;;;;;;;;;;;;;;;;;;1015804;29;1900;-67
2021/12/12 00:29:43;;;;;;;;;;;;;;;;;;1015672;29;2453;-70
2021/12/12 00:30:14;;;;;;;;;;;;;;;;;;1018980;29;1528;-70
2021/12/12 00:30:46;;;;;;;;;;;;;;;;;;1022223;29;1967;-70
2021/12/12 00:31:18;;;;;;;;;;;;;;;;;;1021516;29;2043;-70
2021/12/12 00:31:50;;;;;;;;;;;;;;;;;;1019056;29;1678;-70
2021/12/12 00:32:24;;;;;;;;;;;;;;;;;;1020933;29;1183;-69
2021/12/12 00:32:55;;;;;;;;;;;;;;;;;;1021787;29;2004;-69
2021/12/12 00:33:26;;;;;;;;;;;;;;;;;;1025025;28;1327;-70
2021/12/12 00:33:57;;;;;;;;;;;;;;;;;;1022229;28;1979;-69
2021/12/12 00:34:35;;;;;;;;;;;;;;;;;;1027353;28;1687;-70
2021/12/12 00:35:12;;;;;;;;;;;;;;;;;;1023465;29;1897;-69
2021/12/12 00:35:43;;;;;;;;;;;;;;;;;;1017887;29;1253;-70
2021/12/12 00:36:17;;;;;;;;;;;;;;;;;;1015723;29;2029;-68
2021/12/12 00:36:47;;;;;;;;;;;;;;;;;;1013786;29;1834;-70
2021/12/12 00:37:21;;;;;;;;;;;;;;;;;;1012598;29;1368;-69
2021/12/12 00:37:58;;;;;;;;;;;;;;;;;;1014268;29;1662;-68
2021/12/12 00:38:32;;;;;;;;;;;;;;;;;;1017171;29;1621;-69
2021/12/12 00:39:08;;;;;;;;;;;;;;;;;;1019911;29;1572;-70
2021/12/12 00:39:40;;;;;;;;;;;;;;;;;;1015619;29;1648;-69
2021/12/12 00:40:21;;;;;;;;;;;;;;;;;;1018287;29;1398;-70
2021/12/12 00:40:55;;;;;;;;;;;;;;;;;;1021797;29;2716;-69
2021/12/12 00:41:31;;;;;;;;;;;;;;;;;;1021636;29;1936;-69
2021/12/12 00:42:07;;;;;;;;;;;;;;;;;;1023941;29;1615;-70
2021/12/12 00:42:38;;;;;;;;;;;;;;;;;;1015740;29;2252;-69
2021/12/12 00:43:12;;;;;;;;;;;;;;;;;;1013216;29;2208;-70
2021/12/12 00:43:46;;;;;;;;;;;;;;;;;;1007764;29;2071;-70
2021/12/12 00:44:17;;;;;;;;;;;;;;;;;;1008655;29;2001;-68
2021/12/12 00:44:49;;;;;;;;;;;;;;;;;;1012649;29;2949;-70
2021/12/12 00:45:22;;;;;;;;;;;;;;;;;;1012238;29;2360;-70
2021/12/12 00:45:54;;;;;;;;;;;;;;;;;;1013001;29;1999;-69
2021/12/12 00:46:24;;;;;;;;;;;;;;;;;;1016022;29;2101;-69
2021/12/12 00:46:57;;;;;;;;;;;;;;;;;;1013484;29;2413;-69
2021/12/12 00:47:30;;;;;;;;;;;;;;;;;;1012459;29;2512;-68
2021/12/12 00:48:01;;;;;;;;;;;;;;;;;;1007298;29;1990;-70
2021/12/12 00:48:34;;;;;;;;;;;;;;;;;;1006248;29;1855;-69
2021/12/12 00:49:04;;;;;;;;;;;;;;;;;;1007338;29;2419;-68
2021/12/12 00:49:37;;;;;;;;;;;;;;;;;;1008457;29;2163;-69
2021/12/12 00:50:11;;;;;;;;;;;;;;;;;;1013614;29;1146;-70
2021/12/12 00:50:42;;;;;;;;;;;;;;;;;;1018161;29;2478;-70
2021/12/12 00:51:14;;;;;;;;;;;;;;;;;;1010454;29;2447;-69
2021/12/12 00:51:45;;;;;;;;;;;;;;;;;;1010679;29;1781;-70
2021/12/12 00:52:18;;;;;;;;;;;;;;;;;;1012115;29;1741;-70
2021/12/12 00:52:49;;;;;;;;;;;;;;;;;;1016662;29;2200;-69
2021/12/12 00:53:22;;;;;;;;;;;;;;;;;;1019993;29;1778;-66
2021/12/12 00:53:53;;;;;;;;;;;;;;;;;;1020665;28;1775;-67
2021/12/12 00:54:30;;;;;;;;;;;;;;;;;;1018997;29;1375;-67
2021/12/12 00:55:01;;;;;;;;;;;;;;;;;;1011158;29;1990;-67
2021/12/12 00:55:37;;;;;;;;;;;;;;;;;;1013569;29;1802;-67
2021/12/12 00:56:08;;;;;;;;;;;;;;;;;;1012020;29;1594;-66
2021/12/12 00:56:41;;;;;;;;;;;;;;;;;;1014645;29;1283;-67
2021/12/12 00:57:13;;;;;;;;;;;;;;;;;;1014682;29;2188;-66
2021/12/12 00:57:50;;;;;;;;;;;;;;;;;;1019859;29;2536;-67
2021/12/12 00:58:21;;;;;;;;;;;;;;;;;;1019021;29;2439;-68
2021/12/12 00:58:52;;;;;;;;;;;;;;;;;;1024014;28;2691;-68
2021/12/12 00:59:23;;;;;;;;;;;;;;;;;;1020981;29;1933;-67
2021/12/12 00:59:53;;;;;;;;;;;;;;;;;;1018947;29;2107;-67
2021/12/12 01:00:29;;;;;;;;;;;;;;;;;;1020933;29;2292;-67
2021/12/12 01:01:04;;;;;;;;;;;;;;;;;;1018416;29;1985;-68
2021/12/12 01:01:42;;;;;;;;;;;;;;;;;;1018938;29;2249;-67
2021/12/12 01:02:16;;;;;;;;;;;;;;;;;;1017453;29;1860;-67
2021/12/12 01:02:47;;;;;;;;;;;;;;;;;;1016045;29;1712;-68
2021/12/12 01:03:19;;;;;;;;;;;;;;;;;;1015637;29;1970;-69
2021/12/12 01:03:55;;;;;;;;;;;;;;;;;;1016937;29;1603;-69
2021/12/12 01:04:29;;;;;;;;;;;;;;;;;;1020551;29;2745;-68
2021/12/12 01:05:01;;;;;;;;;;;;;;;;;;1018298;29;2545;-68
2021/12/12 01:05:31;;;;;;;;;;;;;;;;;;1018404;29;1607;-67
2021/12/12 01:06:04;;;;;;;;;;;;;;;;;;1020022;29;1263;-69
2021/12/12 01:06:36;;;;;;;;;;;;;;;;;;1013985;29;2121;-67
2021/12/12 01:07:08;;;;;;;;;;;;;;;;;;1017441;29;2997;-67
2021/12/12 01:07:39;;;;;;;;;;;;;;;;;;1013140;29;1594;-68
2021/12/12 01:08:10;;;;;;;;;;;;;;;;;;1016272;29;1798;-67
2021/12/12 01:08:42;;;;;;;;;;;;;;;;;;1010733;29;1567;-68
2021/12/12 01:09:20;;;;;;;;;;;;;;;;;;1013771;29;1955;-68
2021/12/12 01:09:55;;;;;;;;;;;;;;;;;;1019300;28;2604;-68
2021/12/12 01:10:28;;;;;;;;;;;;;;;;;;1022527;29;2138;-67
2021/12/12 01:11:07;;;;;;;;;;;;;;;;;;1019145;29;2566;-67
2021/12/12 01:11:39;;;;;;;;;;;;;;;;;;1019195;29;2209;-69
2021/12/12 01:12:12;;;;;;;;;;;;;;;;;;1021785;28;2163;-68
2021/12/12 01:12:42;;;;;;;;;;;;;;;;;;1016179;29;1484;-67
2021/12/12 01:13:13;;;;;;;;;;;;;;;;;;1014836;29;1725;-69
2021/12/12 01:13:44;;;;;;;;;;;;;;;;;;1016264;29;1679;-68
2021/12/12 01:14:16;;;;;;;;;;;;;;;;;;1011406;29;1879;-68
2021/12/12 01:14:51;;;;;;;;;;;;;;;;;;1015578;29;2523;-68
2021/12/12 01:15:40;;;;;;;;;;;;;;;;;;1012118;29;1982;-69
2021/12/12 01:16:12;;;;;;;;;;;;;;;;;;1013549;29;2269;-67
2021/12/12 01:16:49;;;;;;;;;;;;;;;;;;1010502;29;1771;-68
2021/12/12 01:17:22;;;;;;;;;;;;;;;;;;1013155;29;2555;-68
2021/12/12 01:17:57;;;;;;;;;;;;;;;;;;1014652;29;2058;-68
2021/12/12 01:18:30;;;;;;;;;;;;;;;;;;1016459;29;1734;-69
2021/12/12 01:19:05;;;;;;;;;;;;;;;;;;1021931;29;1918;-67
2021/12/12 01:19:41;;;;;;;;;;;;;;;;;;1025113;28;1469;-67
2021/12/12 01:20:12;;;;;;;;;;;;;;;;;;1015324;29;2095;-67
2021/12/12 01:20:59;;;;;;;;;;;;;;;;;;1014167;29;1447;-66
2021/12/12 01:21:33;;;;;;;;;;;;;;;;;;1022006;29;2642;-67
2021/12/12 01:22:07;;;;;;;;;;;;;;;;;;1024121;28;2671;-67
2021/12/12 01:22:39;;;;;;;;;;;;;;;;;;1027024;28;2299;-66
2021/12/12 01:23:15;;;;;;;;;;;;;;;;;;1018216;29;1990;-69
2021/12/12 01:23:57;;;;;;;;;;;;;;;;;;1017638;29;1225;-67
2021/12/12 01:24:31;;;;;;;;;;;;;;;;;;1017367;29;2676;-67
2021/12/12 01:25:24;;;;;;;;;;;;;;;;;;1015709;29;2424;-67
2021/12/12 01:25:56;;;;;;;;;;;;;;;;;;1007907;29;2816;-68
2021/12/12 01:26:30;;;;;;;;;;;;;;;;;;1010643;29;2583;-69
2021/12/12 01:27:03;;;;;;;;;;;;;;;;;;1019048;29;2329;-69
2021/12/12 01:27:34;;;;;;;;;;;;;;;;;;1016604;29;2790;-68
2021/12/12 01:28:08;;;;;;;;;;;;;;;;;;1023136;28;1824;-66
2021/12/12 01:28:40;;;;;;;;;;;;;;;;;;1018101;29;2211;-68
2021/12/12 01:29:10;;;;;;;;;;;;;;;;;;1013720;29;2455;-67
2021/12/12 01:29:41;;;;;;;;;;;;;;;;;;1018578;29;1832;-68
2021/12/12 01:30:13;;;;;;;;;;;;;;;;;;1014552;29;1691;-68
2021/12/12 01:30:44;;;;;;;;;;;;;;;;;;1017654;29;2034;-68
2021/12/12 01:31:24;;;;;;;;;;;;;;;;;;1021019;28;2750;-67
2021/12/12 01:31:56;;;;;;;;;;;;;;;;;;1027816;28;1237;-68
2021/12/12 01:32:31;;;;;;;;;;;;;;;;;;1025889;28;1968;-68
2021/12/12 01:33:01;;;;;;;;;;;;;;;;;;1022055;29;2238;-69
2021/12/12 01:33:34;;;;;;;;;;;;;;;;;;1017138;29;2866;-67
2021/12/12 01:34:14;;;;;;;;;;;;;;;;;;1012826;29;2713;-68
2021/12/12 01:34:45;;;;;;;;;;;;;;;;;;1013065;29;1694;-70
2021/12/12 01:35:18;;;;;;;;;;;;;;;;;;1015187;29;1897;-67
2021/12/12 01:35:51;;;;;;;;;;;;;;;;;;1013524;29;1680;-67
2021/12/12 01:36:29;;;;;;;;;;;;;;;;;;1016108;29;2181;-68
2021/12/12 01:37:37;;;;;;;;;;;;;;;;;;1025307;28;2176;-68
2021/12/12 01:38:57;;;;;;;;;;;;;;;;;;1022415;29;1965;-68
2021/12/12 01:39:32;;;;;;;;;;;;;;;;;;1018667;29;2558;-68
2021/12/12 01:40:08;;;;;;;;;;;;;;;;;;1012881;29;2719;-67
2021/12/12 01:40:41;;;;;;;;;;;;;;;;;;1013966;29;1987;-67
2021/12/12 01:41:12;;;;;;;;;;;;;;;;;;1011538;29;2093;-69
2021/12/12 01:41:53;;;;;;;;;;;;;;;;;;1016114;29;2183;-68
2021/12/12 01:42:26;;;;;;;;;;;;;;;;;;1014083;29;2669;-68
2021/12/12 01:43:03;;;;;;;;;;;;;;;;;;1017197;29;3143;-67
2021/12/12 01:43:40;;;;;;;;;;;;;;;;;;1016650;29;2209;-68
2021/12/12 01:44:16;;;;;;;;;;;;;;;;;;1018543;29;2606;-68
2021/12/12 01:44:52;;;;;;;;;;;;;;;;;;1019716;29;2780;-69
2021/12/12 01:45:28;;;;;;;;;;;;;;;;;;1015080;29;2936;-67
2021/12/12 01:46:13;;;;;;;;;;;;;;;;;;1015914;29;1677;-68
2021/12/12 01:46:50;;;;;;;;;;;;;;;;;;1017739;29;2802;-68
2021/12/12 01:47:29;;;;;;;;;;;;;;;;;;1017154;29;2261;-68
2021/12/12 01:48:02;;;;;;;;;;;;;;;;;;1016952;29;2417;-69
2021/12/12 01:49:08;;;;;;;;;;;;;;;;;;1012294;29;2594;-68
2021/12/12 01:49:40;;;;;;;;;;;;;;;;;;1000110;29;1721;-69
2021/12/12 01:50:15;;;;;;;;;;;;;;;;;;999422;29;2081;-67
2021/12/12 01:50:51;;;;;;;;;;;;;;;;;;996871;29;2565;-68
2021/12/12 01:51:22;;;;;;;;;;;;;;;;;;995366;29;2413;-68
2021/12/12 01:51:57;;;;;;;;;;;;;;;;;;999687;29;2426;-70
2021/12/12 01:52:28;;;;;;;;;;;;;;;;;;1008458;29;2425;-67
2021/12/12 01:53:01;;;;;;;;;;;;;;;;;;1015824;29;2563;-68
2021/12/12 01:53:33;;;;;;;;;;;;;;;;;;1013073;29;1469;-68
2021/12/12 01:54:06;;;;;;;;;;;;;;;;;;1011841;29;2646;-68
2021/12/12 01:54:44;;;;;;;;;;;;;;;;;;1013402;29;2621;-68
2021/12/12 01:55:23;;;;;;;;;;;;;;;;;;1015248;29;2290;-68
2021/12/12 01:55:58;;;;;;;;;;;;;;;;;;1019006;29;2573;-67
2021/12/12 01:56:31;;;;;;;;;;;;;;;;;;1014547;29;1682;-68
2021/12/12 01:57:02;;;;;;;;;;;;;;;;;;1011561;29;2098;-67
2021/12/12 01:57:35;;;;;;;;;;;;;;;;;;1007502;29;1790;-69
2021/12/12 01:58:09;;;;;;;;;;;;;;;;;;1015340;29;2178;-68
2021/12/12 01:58:43;;;;;;;;;;;;;;;;;;1007875;29;2481;-68
2021/12/12 01:59:14;;;;;;;;;;;;;;;;;;1012541;29;1734;-68
2021/12/12 01:59:46;;;;;;;;;;;;;;;;;;1011298;29;1593;-67
2021/12/12 02:00:20;;;;;;;;;;;;;;;;;;1007888;29;2490;-69
2021/12/12 02:00:53;;;;;;;;;;;;;;;;;;1007768;29;2434;-68
2021/12/12 02:01:28;;;;;;;;;;;;;;;;;;1012638;29;2779;-68
2021/12/12 02:02:05;;;;;;;;;;;;;;;;;;1015049;29;1160;-68
2021/12/12 02:02:36;;;;;;;;;;;;;;;;;;1011026;29;2497;-68
2021/12/12 02:03:08;;;;;;;;;;;;;;;;;;1008251;29;1911;-67
2021/12/12 02:03:42;;;;;;;;;;;;;;;;;;1006461;29;1863;-69
2021/12/12 02:04:15;;;;;;;;;;;;;;;;;;1012272;29;2531;-67
2021/12/12 02:04:47;;;;;;;;;;;;;;;;;;1011690;29;1755;-66
2021/12/12 02:05:20;;;;;;;;;;;;;;;;;;1008580;29;2586;-69
2021/12/12 02:05:51;;;;;;;;;;;;;;;;;;1007516;29;2322;-67
2021/12/12 02:06:23;;;;;;;;;;;;;;;;;;1011518;29;2417;-68
2021/12/12 02:06:54;;;;;;;;;;;;;;;;;;1008075;29;2741;-69
2021/12/12 02:07:31;;;;;;;;;;;;;;;;;;1013147;29;1565;-69
2021/12/12 02:08:09;;;;;;;;;;;;;;;;;;1019112;29;2511;-68
2021/12/12 02:08:40;;;;;;;;;;;;;;;;;;1013565;29;2505;-69
2021/12/12 02:09:11;;;;;;;;;;;;;;;;;;1007280;29;2167;-69
2021/12/12 02:09:42;;;;;;;;;;;;;;;;;;1005638;29;2493;-67
2021/12/12 02:10:16;;;;;;;;;;;;;;;;;;1011589;29;2546;-69
2021/12/12 02:10:51;;;;;;;;;;;;;;;;;;1016105;29;2072;-68
2021/12/12 02:11:25;;;;;;;;;;;;;;;;;;1018377;29;2638;-69
2021/12/12 02:11:57;;;;;;;;;;;;;;;;;;1016552;29;2378;-68
2021/12/12 02:12:27;;;;;;;;;;;;;;;;;;1012997;29;1875;-67
2021/12/12 02:13:07;;;;;;;;;;;;;;;;;;1015278;29;2524;-69
2021/12/12 02:13:40;;;;;;;;;;;;;;;;;;1016793;29;2727;-68
2021/12/12 02:14:12;;;;;;;;;;;;;;;;;;1017408;29;2089;-68
2021/12/12 02:14:43;;;;;;;;;;;;;;;;;;1015136;29;2028;-67
2021/12/12 02:15:14;;;;;;;;;;;;;;;;;;1015591;29;1405;-68
2021/12/12 02:15:47;;;;;;;;;;;;;;;;;;1015722;29;2197;-69
2021/12/12 02:16:18;;;;;;;;;;;;;;;;;;1021042;29;1864;-69
2021/12/12 02:16:53;;;;;;;;;;;;;;;;;;1014719;29;2567;-67
2021/12/12 02:17:31;;;;;;;;;;;;;;;;;;1016404;29;2536;-68
2021/12/12 02:18:08;;;;;;;;;;;;;;;;;;1019218;29;1797;-68
2021/12/12 02:18:41;;;;;;;;;;;;;;;;;;1014770;29;2417;-68
2021/12/12 02:19:13;;;;;;;;;;;;;;;;;;1015196;29;2874;-67
2021/12/12 02:20:04;;;;;;;;;;;;;;;;;;1007079;29;2017;-67
2021/12/12 02:20:40;;;;;;;;;;;;;;;;;;1010092;29;2848;-68
2021/12/12 02:21:22;;;;;;;;;;;;;;;;;;1010109;29;2044;-68
2021/12/12 02:22:02;;;;;;;;;;;;;;;;;;1019051;29;2517;-69
2021/12/12 02:23:00;;;;;;;;;;;;;;;;;;1015612;29;1777;-68
2021/12/12 02:24:01;;;;;;;;;;;;;;;;;;1017851;29;2320;-69
2021/12/12 02:35:42;;;;;;;;;;;;;;;;;;1017813;29;2446;-68
2021/12/12 02:36:16;;;;;;;;;;;;;;;;;;1008087;29;2388;-68
2021/12/12 02:36:50;;;;;;;;;;;;;;;;;;1008095;29;1274;-67
2021/12/12 02:37:21;;;;;;;;;;;;;;;;;;1008737;29;2518;-67
2021/12/12 02:37:53;;;;;;;;;;;;;;;;;;1012560;29;2420;-68
2021/12/12 02:38:29;;;;;;;;;;;;;;;;;;1012365;29;1985;-69
2021/12/12 02:39:01;;;;;;;;;;;;;;;;;;1007873;29;2417;-68
2021/12/12 02:39:32;;;;;;;;;;;;;;;;;;1007297;29;2529;-68
2021/12/12 02:40:26;;;;;;;;;;;;;;;;;;1005469;29;2597;-69
2021/12/12 02:41:00;;;;;;;;;;;;;;;;;;1011211;29;2306;-68
2021/12/12 02:41:31;;;;;;;;;;;;;;;;;;1014912;29;1896;-67
2021/12/12 02:42:05;;;;;;;;;;;;;;;;;;1014458;29;1896;-69
2021/12/12 02:42:36;;;;;;;;;;;;;;;;;;1007079;29;2002;-68
2021/12/12 02:43:08;;;;;;;;;;;;;;;;;;1004157;29;1978;-67
2021/12/12 02:43:41;;;;;;;;;;;;;;;;;;1008405;29;1628;-67
2021/12/12 02:44:12;;;;;;;;;;;;;;;;;;1005212;29;1822;-68
2021/12/12 02:44:43;;;;;;;;;;;;;;;;;;1006786;29;1982;-68
2021/12/12 02:45:16;;;;;;;;;;;;;;;;;;1009143;29;1660;-68
2021/12/12 02:45:47;;;;;;;;;;;;;;;;;;1015451;29;2073;-68
2021/12/12 02:46:32;;;;;;;;;;;;;;;;;;1014402;29;2602;-68
2021/12/12 02:47:10;;;;;;;;;;;;;;;;;;1016053;29;2038;-69
2021/12/12 02:47:45;;;;;;;;;;;;;;;;;;1017758;29;2487;-67
2021/12/12 02:48:19;;;;;;;;;;;;;;;;;;1019977;28;2357;-69
2021/12/12 02:48:52;;;;;;;;;;;;;;;;;;1017021;29;2738;-68
2021/12/12 02:50:11;;;;;;;;;;;;;;;;;;1011445;29;2769;-68
2021/12/12 02:50:19;;;;;;;;;;;;;;;;;;1007879;29;1963;-67
2021/12/12 02:50:50;;;;;;;;;;;;;;;;;;1013480;29;2746;-68
2021/12/12 02:51:24;;;;;;;;;;;;;;;;;;1010239;29;1955;-69
2021/12/12 02:51:55;;;;;;;;;;;;;;;;;;1011311;29;2443;-68
2021/12/12 02:52:28;;;;;;;;;;;;;;;;;;1012490;29;2632;-69
2021/12/12 02:53:09;;;;;;;;;;;;;;;;;;1014722;29;2318;-68
2021/12/12 02:53:48;;;;;;;;;;;;;;;;;;1019902;29;2409;-68
2021/12/12 02:54:19;;;;;;;;;;;;;;;;;;1016733;29;1918;-69
2021/12/12 02:54:50;;;;;;;;;;;;;;;;;;1014376;29;2428;-68
2021/12/12 02:55:23;;;;;;;;;;;;;;;;;;1012914;29;2558;-68
2021/12/12 02:55:59;;;;;;;;;;;;;;;;;;1013879;29;2089;-69
2021/12/12 02:56:36;;;;;;;;;;;;;;;;;;1019869;29;2367;-68
2021/12/12 02:57:07;;;;;;;;;;;;;;;;;;1014982;29;2352;-69
2021/12/12 02:57:38;;;;;;;;;;;;;;;;;;1014544;29;2406;-69
2021/12/12 02:58:15;;;;;;;;;;;;;;;;;;1008619;29;1869;-68
2021/12/12 02:58:47;;;;;;;;;;;;;;;;;;1007404;29;1545;-68
2021/12/12 02:59:20;;;;;;;;;;;;;;;;;;1007537;29;1647;-69
2021/12/12 02:59:51;;;;;;;;;;;;;;;;;;1009567;29;2479;-67
2021/12/12 03:00:22;;;;;;;;;;;;;;;;;;1007978;29;1939;-68
2021/12/12 03:01:04;;;;;;;;;;;;;;;;;;1014384;29;2091;-68
2021/12/12 03:01:40;;;;;;;;;;;;;;;;;;1014710;29;1892;-68
2021/12/12 03:02:13;;;;;;;;;;;;;;;;;;1019257;29;2553;-67
2021/12/12 03:02:46;;;;;;;;;;;;;;;;;;1014377;29;1868;-68
2021/12/12 03:03:17;;;;;;;;;;;;;;;;;;1008919;29;2009;-68
2021/12/12 03:03:48;;;;;;;;;;;;;;;;;;1011396;29;3473;-67
2021/12/12 03:04:19;;;;;;;;;;;;;;;;;;1014942;29;1833;-67
2021/12/12 03:04:50;;;;;;;;;;;;;;;;;;1012148;29;2657;-69
2021/12/12 03:05:21;;;;;;;;;;;;;;;;;;1015550;29;1581;-68
2021/12/12 03:05:56;;;;;;;;;;;;;;;;;;1019055;29;2278;-68
2021/12/12 03:06:28;;;;;;;;;;;;;;;;;;1015491;29;2444;-68
2021/12/12 03:06:59;;;;;;;;;;;;;;;;;;1017650;29;2547;-69
2021/12/12 03:07:30;;;;;;;;;;;;;;;;;;1015836;29;1874;-69
2021/12/12 03:08:01;;;;;;;;;;;;;;;;;;1010478;29;2977;-69
2021/12/12 03:08:31;;;;;;;;;;;;;;;;;;1013202;29;2314;-68
2021/12/12 03:09:12;;;;;;;;;;;;;;;;;;1012454;29;2457;-69
2021/12/12 03:09:43;;;;;;;;;;;;;;;;;;1012379;29;2472;-68
2021/12/12 03:10:16;;;;;;;;;;;;;;;;;;1012841;29;1849;-68
2021/12/12 03:10:48;;;;;;;;;;;;;;;;;;1014873;29;2137;-69
2021/12/12 03:11:19;;;;;;;;;;;;;;;;;;1011951;29;2465;-69
2021/12/12 03:11:52;;;;;;;;;;;;;;;;;;1010846;29;2255;-68
2021/12/12 03:12:31;;;;;;;;;;;;;;;;;;1020026;29;2775;-67
2021/12/12 03:13:02;;;;;;;;;;;;;;;;;;1014708;29;2422;-68
2021/12/12 03:13:32;;;;;;;;;;;;;;;;;;1012027;29;2860;-68
2021/12/12 03:14:06;;;;;;;;;;;;;;;;;;1008983;29;1981;-68
2021/12/12 03:14:37;;;;;;;;;;;;;;;;;;1009428;29;1578;-69
2021/12/12 03:15:13;;;;;;;;;;;;;;;;;;1019292;29;2454;-69
2021/12/12 03:15:45;;;;;;;;;;;;;;;;;;1020461;29;2581;-68
2021/12/12 03:16:19;;;;;;;;;;;;;;;;;;1018157;29;1936;-69
2021/12/12 03:16:50;;;;;;;;;;;;;;;;;;1015074;29;1468;-68
2021/12/12 03:17:22;;;;;;;;;;;;;;;;;;1006667;29;2174;-68
2021/12/12 03:17:54;;;;;;;;;;;;;;;;;;1008017;29;2076;-68
2021/12/12 03:18:32;;;;;;;;;;;;;;;;;;1007865;29;1362;-68
2021/12/12 03:19:04;;;;;;;;;;;;;;;;;;1013509;29;1742;-68
2021/12/12 03:19:35;;;;;;;;;;;;;;;;;;1017344;29;1989;-68
2021/12/12 03:20:23;;;;;;;;;;;;;;;;;;1021464;28;2003;-68
2021/12/12 03:20:55;;;;;;;;;;;;;;;;;;1021690;29;1994;-68
2021/12/12 03:21:32;;;;;;;;;;;;;;;;;;1016051;29;1769;-68
2021/12/12 03:22:05;;;;;;;;;;;;;;;;;;1017728;29;2080;-67
2021/12/12 03:22:35;;;;;;;;;;;;;;;;;;1021071;29;1756;-68
2021/12/12 03:23:19;;;;;;;;;;;;;;;;;;1022381;29;1916;-68
2021/12/12 03:23:52;;;;;;;;;;;;;;;;;;1021962;28;1970;-69
2021/12/12 03:24:25;;;;;;;;;;;;;;;;;;1017302;29;2578;-68
2021/12/12 03:24:56;;;;;;;;;;;;;;;;;;1015555;29;2248;-69
2021/12/12 03:25:29;;;;;;;;;;;;;;;;;;1018007;29;1415;-69
2021/12/12 03:26:03;;;;;;;;;;;;;;;;;;1019432;29;1285;-68
2021/12/12 03:26:34;;;;;;;;;;;;;;;;;;1017973;29;2578;-68
2021/12/12 03:27:06;;;;;;;;;;;;;;;;;;1019670;29;2425;-68
2021/12/12 03:27:39;;;;;;;;;;;;;;;;;;1020013;29;1944;-67
2021/12/12 03:28:12;;;;;;;;;;;;;;;;;;1015903;29;1114;-69
2021/12/12 03:28:44;;;;;;;;;;;;;;;;;;1015013;29;1632;-69
2021/12/12 03:29:14;;;;;;;;;;;;;;;;;;1012699;29;2172;-68
2021/12/12 03:29:46;;;;;;;;;;;;;;;;;;1011037;29;2499;-68
2021/12/12 03:30:17;;;;;;;;;;;;;;;;;;1011639;29;2154;-69
2021/12/12 03:30:49;;;;;;;;;;;;;;;;;;1015914;29;1709;-68
2021/12/12 03:31:25;;;;;;;;;;;;;;;;;;1015216;29;2412;-68
2021/12/12 03:32:00;;;;;;;;;;;;;;;;;;1016616;29;2540;-68
2021/12/12 03:32:31;;;;;;;;;;;;;;;;;;1014557;29;1717;-69
2021/12/12 03:33:01;;;;;;;;;;;;;;;;;;1017702;29;1361;-68
2021/12/12 03:33:32;;;;;;;;;;;;;;;;;;1018763;29;2473;-68
2021/12/12 03:34:07;;;;;;;;;;;;;;;;;;1019580;29;2562;-68
2021/12/12 03:34:41;;;;;;;;;;;;;;;;;;1018573;29;2802;-68
2021/12/12 03:35:12;;;;;;;;;;;;;;;;;;1015245;29;1846;-68
2021/12/12 03:35:45;;;;;;;;;;;;;;;;;;1011299;29;2643;-68
2021/12/12 03:36:17;;;;;;;;;;;;;;;;;;1009647;29;2524;-68
2021/12/12 03:36:49;;;;;;;;;;;;;;;;;;1015370;29;2159;-69
2021/12/12 03:37:22;;;;;;;;;;;;;;;;;;1016943;29;2453;-69
2021/12/12 03:37:55;;;;;;;;;;;;;;;;;;1012523;29;2558;-69
2021/12/12 03:38:28;;;;;;;;;;;;;;;;;;1009293;29;1855;-68
2021/12/12 03:39:02;;;;;;;;;;;;;;;;;;1013071;29;2425;-69
2021/12/12 03:39:34;;;;;;;;;;;;;;;;;;1013411;29;2914;-67
2021/12/12 03:40:11;;;;;;;;;;;;;;;;;;1013997;29;2505;-68
2021/12/12 03:40:44;;;;;;;;;;;;;;;;;;1016413;29;2389;-68
2021/12/12 03:41:18;;;;;;;;;;;;;;;;;;1015583;29;1625;-68
2021/12/12 03:41:51;;;;;;;;;;;;;;;;;;1016512;29;2070;-69
2021/12/12 03:42:23;;;;;;;;;;;;;;;;;;1016904;29;2208;-67
2021/12/12 03:42:56;;;;;;;;;;;;;;;;;;1012819;29;1488;-68
2021/12/12 03:43:30;;;;;;;;;;;;;;;;;;1016122;29;2459;-68
2021/12/12 03:44:03;;;;;;;;;;;;;;;;;;1018064;29;2891;-68
2021/12/12 03:44:34;;;;;;;;;;;;;;;;;;1017094;29;1576;-68
2021/12/12 03:45:06;;;;;;;;;;;;;;;;;;1017219;29;1379;-67
2021/12/12 03:45:37;;;;;;;;;;;;;;;;;;1015124;29;2164;-69
2021/12/12 03:46:10;;;;;;;;;;;;;;;;;;1010166;29;2517;-68
2021/12/12 03:46:41;;;;;;;;;;;;;;;;;;1010766;29;2670;-69
2021/12/12 03:47:21;;;;;;;;;;;;;;;;;;1012250;29;2825;-68
2021/12/12 03:47:54;;;;;;;;;;;;;;;;;;1015434;29;2261;-68
2021/12/12 03:48:28;;;;;;;;;;;;;;;;;;1013032;29;2384;-68
2021/12/12 03:48:59;;;;;;;;;;;;;;;;;;1014689;29;2016;-69
2021/12/12 03:49:31;;;;;;;;;;;;;;;;;;1022684;28;2433;-68
2021/12/12 03:50:05;;;;;;;;;;;;;;;;;;1021464;28;2423;-68
2021/12/12 03:50:41;;;;;;;;;;;;;;;;;;1026003;28;1866;-69
2021/12/12 03:51:13;;;;;;;;;;;;;;;;;;1022606;28;1815;-68
2021/12/12 03:51:45;;;;;;;;;;;;;;;;;;1016308;29;1965;-67
2021/12/12 03:52:18;;;;;;;;;;;;;;;;;;1013172;29;2350;-68
2021/12/12 03:52:49;;;;;;;;;;;;;;;;;;1010941;29;2442;-68
2021/12/12 03:53:23;;;;;;;;;;;;;;;;;;1015693;29;3746;-68
2021/12/12 03:53:54;;;;;;;;;;;;;;;;;;1020127;29;2840;-68
2021/12/12 03:54:25;;;;;;;;;;;;;;;;;;1011048;29;2350;-68
2021/12/12 03:54:59;;;;;;;;;;;;;;;;;;1008160;29;2590;-68
2021/12/12 03:55:31;;;;;;;;;;;;;;;;;;1015896;29;1523;-69
2021/12/12 03:56:05;;;;;;;;;;;;;;;;;;1015329;29;2513;-67
2021/12/12 03:56:36;;;;;;;;;;;;;;;;;;1016374;29;2552;-67
2021/12/12 03:57:06;;;;;;;;;;;;;;;;;;1015083;29;1735;-67
2021/12/12 03:57:37;;;;;;;;;;;;;;;;;;1017110;28;1805;-68
2021/12/12 03:58:08;;;;;;;;;;;;;;;;;;1024061;28;1606;-67
2021/12/12 03:58:39;;;;;;;;;;;;;;;;;;1019441;29;1865;-68
2021/12/12 03:59:10;;;;;;;;;;;;;;;;;;1020486;29;2364;-67
2021/12/12 03:59:41;;;;;;;;;;;;;;;;;;1019853;29;1995;-68
2021/12/12 04:00:14;;;;;;;;;;;;;;;;;;1024023;28;1861;-69
2021/12/12 04:00:53;;;;;;;;;;;;;;;;;;1026784;28;2021;-68
2021/12/12 04:01:27;;;;;;;;;;;;;;;;;;1023407;29;2696;-68
2021/12/12 04:02:01;;;;;;;;;;;;;;;;;;1019814;29;2901;-69
2021/12/12 04:02:31;;;;;;;;;;;;;;;;;;1023674;28;2045;-69
2021/12/12 04:03:07;;;;;;;;;;;;;;;;;;1019912;29;2408;-68
2021/12/12 04:03:38;;;;;;;;;;;;;;;;;;1016832;29;2522;-68
2021/12/12 04:04:11;;;;;;;;;;;;;;;;;;1020817;29;2763;-68
2021/12/12 04:04:43;;;;;;;;;;;;;;;;;;1017005;29;2334;-68
2021/12/12 04:05:14;;;;;;;;;;;;;;;;;;1017066;29;2230;-68
2021/12/12 04:05:45;;;;;;;;;;;;;;;;;;1016152;29;1810;-69
2021/12/12 04:06:18;;;;;;;;;;;;;;;;;;1011776;29;1782;-68
2021/12/12 04:06:49;;;;;;;;;;;;;;;;;;1011949;29;2093;-69
2021/12/12 04:07:23;;;;;;;;;;;;;;;;;;1013336;29;2278;-68
2021/12/12 04:07:57;;;;;;;;;;;;;;;;;;1016687;29;1808;-69